sensor_id;sensor_type;location;lat;lon;timestamp;pressure;altitude;pressure_sealevel;temperature;humidity
72336;BME280;73817;48.446;8.834;2023-12-22T00:01:16;96425.72;;;7.50;96.45
72336;BME280;73817;48.446;8.834;2023-12-22T00:04:16;96425.13;;;7.48;96.46
72336;BME280;73817;48.446;8.834;2023-12-22T00:07:17;96438.50;;;7.45;95.71
72336;BME280;73817;48.446;8.834;2023-12-22T00:10:17;96430.88;;;7.43;96.15
72336;BME280;73817;48.446;8.834;2023-12-22T00:13:17;96441.69;;;7.40;96.42
72336;BME280;73817;48.446;8.834;2023-12-22T00:16:18;96444.47;;;7.39;97.76
72336;BME280;73817;48.446;8.834;2023-12-22T00:19:18;96444.47;;;7.39;96.09
72336;BME280;73817;48.446;8.834;2023-12-22T00:22:18;96442.69;;;7.39;94.57
72336;BME280;73817;48.446;8.834;2023-12-22T00:25:19;96452.66;;;7.36;93.14
72336;BME280;73817;48.446;8.834;2023-12-22T00:28:19;96450.06;;;7.36;93.46
72336;BME280;73817;48.446;8.834;2023-12-22T00:31:19;96460.47;;;7.36;92.48
72336;BME280;73817;48.446;8.834;2023-12-22T00:34:21;96457.88;;;7.36;92.37
72336;BME280;73817;48.446;8.834;2023-12-22T00:37:22;96458.69;;;7.36;90.74
72336;BME280;73817;48.446;8.834;2023-12-22T00:40:22;96452.47;;;7.37;89.89
72336;BME280;73817;48.446;8.834;2023-12-22T00:43:22;96455.69;;;7.39;90.43
72336;BME280;73817;48.446;8.834;2023-12-22T00:46:23;96465.28;;;7.39;88.93
72336;BME280;73817;48.446;8.834;2023-12-22T00:49:23;96460.75;;;7.47;89.25
72336;BME280;73817;48.446;8.834;2023-12-22T00:52:23;96475.19;;;7.50;90.15
72336;BME280;73817;48.446;8.834;2023-12-22T00:55:24;96470.19;;;7.48;91.75
72336;BME280;73817;48.446;8.834;2023-12-22T00:58:24;96463.34;;;7.47;93.46
72336;BME280;73817;48.446;8.834;2023-12-22T01:01:25;96461.31;;;7.43;91.88
72336;BME280;73817;48.446;8.834;2023-12-22T01:04:25;96438.88;;;7.42;93.95
72336;BME280;73817;48.446;8.834;2023-12-22T01:07:26;96425.06;;;7.41;95.22
72336;BME280;73817;48.446;8.834;2023-12-22T01:10:26;96445.03;;;7.34;94.36
72336;BME280;73817;48.446;8.834;2023-12-22T01:13:26;96429.44;;;7.34;96.27
72336;BME280;73817;48.446;8.834;2023-12-22T01:16:26;96429.22;;;7.29;97.03
72336;BME280;73817;48.446;8.834;2023-12-22T01:19:27;96427.78;;;7.27;97.43
72336;BME280;73817;48.446;8.834;2023-12-22T01:22:28;96444.59;;;7.24;98.43
72336;BME280;73817;48.446;8.834;2023-12-22T01:25:28;96439.75;;;7.21;97.23
72336;BME280;73817;48.446;8.834;2023-12-22T01:28:28;96434.75;;;7.20;98.81
72336;BME280;73817;48.446;8.834;2023-12-22T01:31:29;96432.53;;;7.17;99.36
72336;BME280;73817;48.446;8.834;2023-12-22T01:34:29;96446.53;;;7.16;96.90
72336;BME280;73817;48.446;8.834;2023-12-22T01:37:31;96460.13;;;7.18;97.42
72336;BME280;73817;48.446;8.834;2023-12-22T01:40:31;96462.75;;;7.18;98.84
72336;BME280;73817;48.446;8.834;2023-12-22T01:43:32;96458.16;;;7.20;98.82
72336;BME280;73817;48.446;8.834;2023-12-22T01:46:33;96455.13;;;7.16;98.79
72336;BME280;73817;48.446;8.834;2023-12-22T01:49:34;96479.53;;;7.15;97.07
72336;BME280;73817;48.446;8.834;2023-12-22T01:52:34;96512.81;;;7.20;98.23
72336;BME280;73817;48.446;8.834;2023-12-22T01:55:35;96533.25;;;7.23;98.73
72336;BME280;73817;48.446;8.834;2023-12-22T01:58:36;96535.84;;;7.23;97.63
72336;BME280;73817;48.446;8.834;2023-12-22T02:01:38;96505.63;;;7.22;97.80
72336;BME280;73817;48.446;8.834;2023-12-22T02:04:39;96516.78;;;7.16;96.22
72336;BME280;73817;48.446;8.834;2023-12-22T02:07:42;96525.97;;;7.12;95.01
72336;BME280;73817;48.446;8.834;2023-12-22T02:10:43;96526.94;;;7.11;94.90
72336;BME280;73817;48.446;8.834;2023-12-22T02:13:44;96541.50;;;7.05;93.43
72336;BME280;73817;48.446;8.834;2023-12-22T02:16:55;96542.88;;;7.01;94.79
72336;BME280;73817;48.446;8.834;2023-12-22T02:19:58;96521.63;;;6.98;93.98
72336;BME280;73817;48.446;8.834;2023-12-22T02:22:59;96518.56;;;6.94;88.62
72336;BME280;73817;48.446;8.834;2023-12-22T02:26:06;96523.59;;;6.96;92.40
72336;BME280;73817;48.446;8.834;2023-12-22T02:29:11;96515.13;;;6.87;91.84
72336;BME280;73817;48.446;8.834;2023-12-22T02:32:30;96518.72;;;6.86;91.76
72336;BME280;73817;48.446;8.834;2023-12-22T02:35:33;96527.44;;;6.79;92.03
72336;BME280;73817;48.446;8.834;2023-12-22T02:38:36;96525.56;;;6.73;94.13
72336;BME280;73817;48.446;8.834;2023-12-22T02:41:37;96534.28;;;6.65;91.05
72336;BME280;73817;48.446;8.834;2023-12-22T02:44:38;96508.13;;;6.67;91.61
72336;BME280;73817;48.446;8.834;2023-12-22T02:47:39;96524.34;;;6.69;91.80
72336;BME280;73817;48.446;8.834;2023-12-22T02:50:40;96520.19;;;6.74;91.11
72336;BME280;73817;48.446;8.834;2023-12-22T02:53:40;96537.47;;;6.82;92.07
72336;BME280;73817;48.446;8.834;2023-12-22T02:56:40;96543.91;;;6.86;91.40
72336;BME280;73817;48.446;8.834;2023-12-22T02:59:42;96544.75;;;6.93;92.42
72336;BME280;73817;48.446;8.834;2023-12-22T03:02:43;96566.22;;;6.95;93.11
72336;BME280;73817;48.446;8.834;2023-12-22T03:05:43;96583.41;;;6.96;92.75
72336;BME280;73817;48.446;8.834;2023-12-22T03:08:44;96583.53;;;6.88;94.48
72336;BME280;73817;48.446;8.834;2023-12-22T03:11:44;96519.19;;;6.75;93.48
72336;BME280;73817;48.446;8.834;2023-12-22T03:14:44;96516.47;;;6.62;92.14
72336;BME280;73817;48.446;8.834;2023-12-22T03:17:45;96528.50;;;6.48;90.12
72336;BME280;73817;48.446;8.834;2023-12-22T03:20:47;96518.78;;;6.36;92.59
72336;BME280;73817;48.446;8.834;2023-12-22T03:23:47;96530.09;;;6.28;94.02
72336;BME280;73817;48.446;8.834;2023-12-22T03:26:48;96540.59;;;6.20;96.76
72336;BME280;73817;48.446;8.834;2023-12-22T03:29:48;96538.72;;;6.14;96.65
72336;BME280;73817;48.446;8.834;2023-12-22T03:32:49;96552.84;;;6.12;98.01
72336;BME280;73817;48.446;8.834;2023-12-22T03:35:49;96550.78;;;6.07;99.32
72336;BME280;73817;48.446;8.834;2023-12-22T03:38:50;96547.22;;;6.08;100.00
72336;BME280;73817;48.446;8.834;2023-12-22T03:41:50;96536.03;;;6.08;100.00
72336;BME280;73817;48.446;8.834;2023-12-22T03:44:50;96525.47;;;6.09;100.00
72336;BME280;73817;48.446;8.834;2023-12-22T03:47:51;96512.13;;;6.12;100.00
72336;BME280;73817;48.446;8.834;2023-12-22T03:50:51;96505.31;;;6.11;99.39
72336;BME280;73817;48.446;8.834;2023-12-22T03:53:51;96528.94;;;6.16;100.00
72336;BME280;73817;48.446;8.834;2023-12-22T03:56:52;96520.97;;;6.18;100.00
72336;BME280;73817;48.446;8.834;2023-12-22T03:59:52;96514.81;;;6.19;99.54
72336;BME280;73817;48.446;8.834;2023-12-22T04:02:52;96516.41;;;6.20;98.98
72336;BME280;73817;48.446;8.834;2023-12-22T04:05:53;96506.00;;;6.20;98.15
72336;BME280;73817;48.446;8.834;2023-12-22T04:08:53;96520.69;;;6.27;95.98
72336;BME280;73817;48.446;8.834;2023-12-22T04:11:53;96529.34;;;6.34;93.99
72336;BME280;73817;48.446;8.834;2023-12-22T04:14:54;96565.47;;;6.44;90.71
72336;BME280;73817;48.446;8.834;2023-12-22T04:17:54;96571.00;;;6.56;94.91
72336;BME280;73817;48.446;8.834;2023-12-22T04:20:54;96567.41;;;6.57;92.69
72336;BME280;73817;48.446;8.834;2023-12-22T04:23:55;96571.78;;;6.56;95.21
72336;BME280;73817;48.446;8.834;2023-12-22T04:26:55;96588.75;;;6.52;92.82
72336;BME280;73817;48.446;8.834;2023-12-22T04:29:56;96583.53;;;6.52;92.85
72336;BME280;73817;48.446;8.834;2023-12-22T04:32:56;96587.31;;;6.50;94.48
72336;BME280;73817;48.446;8.834;2023-12-22T04:35:56;96596.47;;;6.46;95.54
72336;BME280;73817;48.446;8.834;2023-12-22T04:38:57;96593.59;;;6.40;93.93
72336;BME280;73817;48.446;8.834;2023-12-22T04:41:57;96582.16;;;6.35;95.66
72336;BME280;73817;48.446;8.834;2023-12-22T04:44:58;96585.47;;;6.29;95.14
72336;BME280;73817;48.446;8.834;2023-12-22T04:47:58;96595.03;;;6.28;94.88
72336;BME280;73817;48.446;8.834;2023-12-22T04:50:58;96621.47;;;6.32;96.29
72336;BME280;73817;48.446;8.834;2023-12-22T04:53:59;96616.28;;;6.32;97.49
72336;BME280;73817;48.446;8.834;2023-12-22T04:56:59;96594.69;;;6.31;97.10
72336;BME280;73817;48.446;8.834;2023-12-22T05:00:00;96606.69;;;6.32;97.22
72336;BME280;73817;48.446;8.834;2023-12-22T05:03:00;96612.50;;;6.34;95.20
72336;BME280;73817;48.446;8.834;2023-12-22T05:06:00;96593.59;;;6.40;94.11
72336;BME280;73817;48.446;8.834;2023-12-22T05:09:01;96606.28;;;6.50;92.88
72336;BME280;73817;48.446;8.834;2023-12-22T05:12:03;96620.56;;;6.54;89.16
72336;BME280;73817;48.446;8.834;2023-12-22T05:15:03;96614.09;;;6.65;89.93
72336;BME280;73817;48.446;8.834;2023-12-22T05:18:04;96607.34;;;6.70;90.99
72336;BME280;73817;48.446;8.834;2023-12-22T05:21:04;96598.38;;;6.73;91.33
72336;BME280;73817;48.446;8.834;2023-12-22T05:24:05;96594.97;;;6.72;90.09
72336;BME280;73817;48.446;8.834;2023-12-22T05:27:05;96598.84;;;6.76;91.81
72336;BME280;73817;48.446;8.834;2023-12-22T05:30:06;96607.41;;;6.77;90.81
72336;BME280;73817;48.446;8.834;2023-12-22T05:33:07;96615.03;;;6.78;90.37
72336;BME280;73817;48.446;8.834;2023-12-22T05:36:08;96600.06;;;6.80;91.92
72336;BME280;73817;48.446;8.834;2023-12-22T05:39:08;96607.22;;;6.78;87.44
72336;BME280;73817;48.446;8.834;2023-12-22T05:42:10;96616.13;;;6.84;90.34
72336;BME280;73817;48.446;8.834;2023-12-22T05:45:10;96606.31;;;6.86;90.98
72336;BME280;73817;48.446;8.834;2023-12-22T05:48:11;96641.13;;;6.85;89.54
72336;BME280;73817;48.446;8.834;2023-12-22T05:51:11;96641.56;;;6.88;87.74
72336;BME280;73817;48.446;8.834;2023-12-22T05:54:13;96646.19;;;6.93;87.56
72336;BME280;73817;48.446;8.834;2023-12-22T05:57:14;96633.81;;;6.95;87.51
72336;BME280;73817;48.446;8.834;2023-12-22T06:00:14;96658.25;;;6.94;90.09
72336;BME280;73817;48.446;8.834;2023-12-22T06:03:15;96653.03;;;6.94;89.18
72336;BME280;73817;48.446;8.834;2023-12-22T06:06:15;96643.59;;;6.93;87.50
72336;BME280;73817;48.446;8.834;2023-12-22T06:09:16;96630.88;;;6.98;90.38
72336;BME280;73817;48.446;8.834;2023-12-22T06:12:18;96641.91;;;7.00;88.80
72336;BME280;73817;48.446;8.834;2023-12-22T06:15:18;96662.53;;;7.01;88.54
72336;BME280;73817;48.446;8.834;2023-12-22T06:18:19;96668.16;;;7.05;89.64
72336;BME280;73817;48.446;8.834;2023-12-22T06:21:19;96671.13;;;7.02;86.60
72336;BME280;73817;48.446;8.834;2023-12-22T06:24:19;96678.00;;;7.09;89.71
72336;BME280;73817;48.446;8.834;2023-12-22T06:27:20;96679.88;;;7.15;87.47
72336;BME280;73817;48.446;8.834;2023-12-22T06:30:20;96679.69;;;7.17;88.03
72336;BME280;73817;48.446;8.834;2023-12-22T06:33:20;96683.13;;;7.17;85.74
72336;BME280;73817;48.446;8.834;2023-12-22T06:36:22;96686.50;;;7.18;86.23
72336;BME280;73817;48.446;8.834;2023-12-22T06:39:22;96698.72;;;7.17;83.80
72336;BME280;73817;48.446;8.834;2023-12-22T06:42:23;96701.56;;;7.22;85.62
72336;BME280;73817;48.446;8.834;2023-12-22T06:45:23;96702.56;;;7.21;85.96
72336;BME280;73817;48.446;8.834;2023-12-22T06:48:23;96708.59;;;7.22;85.74
72336;BME280;73817;48.446;8.834;2023-12-22T06:51:28;96723.38;;;7.21;85.54
72336;BME280;73817;48.446;8.834;2023-12-22T06:54:28;96719.97;;;7.21;85.70
72336;BME280;73817;48.446;8.834;2023-12-22T06:57:29;96733.16;;;7.19;86.08
72336;BME280;73817;48.446;8.834;2023-12-22T07:00:29;96729.41;;;7.22;84.92
72336;BME280;73817;48.446;8.834;2023-12-22T07:03:30;96725.81;;;7.23;84.56
72336;BME280;73817;48.446;8.834;2023-12-22T07:06:32;96727.78;;;7.21;84.52
72336;BME280;73817;48.446;8.834;2023-12-22T07:09:33;96723.38;;;7.21;80.60
72336;BME280;73817;48.446;8.834;2023-12-22T07:12:33;96715.84;;;7.26;78.28
72336;BME280;73817;48.446;8.834;2023-12-22T07:15:33;96704.34;;;7.35;79.35
72336;BME280;73817;48.446;8.834;2023-12-22T07:18:37;96716.16;;;7.38;80.58
72336;BME280;73817;48.446;8.834;2023-12-22T07:21:38;96714.00;;;7.41;83.65
72336;BME280;73817;48.446;8.834;2023-12-22T07:24:38;96729.38;;;7.36;81.39
72336;BME280;73817;48.446;8.834;2023-12-22T07:27:38;96728.72;;;7.34;82.51
72336;BME280;73817;48.446;8.834;2023-12-22T07:30:39;96729.91;;;7.32;82.32
72336;BME280;73817;48.446;8.834;2023-12-22T07:33:39;96738.34;;;7.34;82.63
72336;BME280;73817;48.446;8.834;2023-12-22T07:36:40;96730.38;;;7.35;85.60
72336;BME280;73817;48.446;8.834;2023-12-22T07:39:41;96740.69;;;7.29;82.81
72336;BME280;73817;48.446;8.834;2023-12-22T07:42:41;96743.13;;;7.30;84.66
72336;BME280;73817;48.446;8.834;2023-12-22T07:45:42;96737.09;;;7.30;84.16
72336;BME280;73817;48.446;8.834;2023-12-22T07:48:42;96716.44;;;7.28;83.62
72336;BME280;73817;48.446;8.834;2023-12-22T07:51:42;96706.84;;;7.29;86.25
72336;BME280;73817;48.446;8.834;2023-12-22T07:54:44;96723.84;;;7.25;83.93
72336;BME280;73817;48.446;8.834;2023-12-22T07:57:44;96733.78;;;7.21;83.19
72336;BME280;73817;48.446;8.834;2023-12-22T08:00:45;96722.28;;;7.30;84.44
72336;BME280;73817;48.446;8.834;2023-12-22T08:03:46;96705.69;;;7.31;83.90
72336;BME280;73817;48.446;8.834;2023-12-22T08:06:46;96728.31;;;7.31;83.74
72336;BME280;73817;48.446;8.834;2023-12-22T08:09:47;96713.75;;;7.36;84.45
72336;BME280;73817;48.446;8.834;2023-12-22T08:12:47;96737.78;;;7.38;83.05
72336;BME280;73817;48.446;8.834;2023-12-22T08:15:47;96751.06;;;7.43;85.22
72336;BME280;73817;48.446;8.834;2023-12-22T08:18:48;96759.50;;;7.45;84.88
72336;BME280;73817;48.446;8.834;2023-12-22T08:21:48;96768.75;;;7.48;85.04
72336;BME280;73817;48.446;8.834;2023-12-22T08:24:49;96766.13;;;7.48;84.36
72336;BME280;73817;48.446;8.834;2023-12-22T08:27:49;96755.09;;;7.46;84.11
72336;BME280;73817;48.446;8.834;2023-12-22T08:30:50;96743.94;;;7.52;84.60
72336;BME280;73817;48.446;8.834;2023-12-22T08:33:50;96745.75;;;7.51;85.99
72336;BME280;73817;48.446;8.834;2023-12-22T08:36:51;96752.31;;;7.47;85.38
72336;BME280;73817;48.446;8.834;2023-12-22T08:39:51;96753.41;;;7.38;87.26
72336;BME280;73817;48.446;8.834;2023-12-22T08:42:52;96760.88;;;7.27;88.15
72336;BME280;73817;48.446;8.834;2023-12-22T08:45:59;96775.69;;;7.26;89.69
72336;BME280;73817;48.446;8.834;2023-12-22T08:49:00;96755.78;;;7.19;89.32
72336;BME280;73817;48.446;8.834;2023-12-22T08:52:00;96762.91;;;7.10;90.57
72336;BME280;73817;48.446;8.834;2023-12-22T08:55:02;96750.50;;;7.12;90.77
72336;BME280;73817;48.446;8.834;2023-12-22T08:58:02;96760.91;;;7.12;90.23
72336;BME280;73817;48.446;8.834;2023-12-22T09:01:02;96743.16;;;7.16;90.39
72336;BME280;73817;48.446;8.834;2023-12-22T09:04:03;96754.34;;;7.16;88.95
72336;BME280;73817;48.446;8.834;2023-12-22T09:07:03;96764.38;;;7.19;89.48
72336;BME280;73817;48.446;8.834;2023-12-22T09:10:04;96779.28;;;7.25;92.39
72336;BME280;73817;48.446;8.834;2023-12-22T09:13:04;96791.13;;;7.28;89.38
72336;BME280;73817;48.446;8.834;2023-12-22T09:16:05;96785.56;;;7.31;91.18
72336;BME280;73817;48.446;8.834;2023-12-22T09:19:06;96776.75;;;7.32;90.29
72336;BME280;73817;48.446;8.834;2023-12-22T09:22:06;96795.34;;;7.29;90.28
72336;BME280;73817;48.446;8.834;2023-12-22T09:25:07;96776.75;;;7.32;87.84
72336;BME280;73817;48.446;8.834;2023-12-22T09:28:08;96767.00;;;7.34;87.83
72336;BME280;73817;48.446;8.834;2023-12-22T09:31:09;96777.81;;;7.37;88.65
72336;BME280;73817;48.446;8.834;2023-12-22T09:34:09;96775.22;;;7.37;87.99
72336;BME280;73817;48.446;8.834;2023-12-22T09:37:10;96788.06;;;7.39;87.95
72336;BME280;73817;48.446;8.834;2023-12-22T09:40:10;96807.63;;;7.35;88.02
72336;BME280;73817;48.446;8.834;2023-12-22T09:43:13;96780.06;;;7.40;88.65
72336;BME280;73817;48.446;8.834;2023-12-22T09:46:15;96799.88;;;7.41;88.01
72336;BME280;73817;48.446;8.834;2023-12-22T09:49:17;96781.66;;;7.41;87.63
72336;BME280;73817;48.446;8.834;2023-12-22T09:52:17;96789.94;;;7.45;88.58
72336;BME280;73817;48.446;8.834;2023-12-22T09:55:21;96812.13;;;7.41;87.74
72336;BME280;73817;48.446;8.834;2023-12-22T09:58:22;96803.94;;;7.44;87.62
72336;BME280;73817;48.446;8.834;2023-12-22T10:01:22;96801.75;;;7.47;88.69
72336;BME280;73817;48.446;8.834;2023-12-22T10:04:24;96806.19;;;7.47;88.64
72336;BME280;73817;48.446;8.834;2023-12-22T10:07:25;96792.53;;;7.45;88.84
72336;BME280;73817;48.446;8.834;2023-12-22T10:10:29;96786.78;;;7.49;89.55
72336;BME280;73817;48.446;8.834;2023-12-22T10:13:31;96790.19;;;7.50;88.60
72336;BME280;73817;48.446;8.834;2023-12-22T10:16:33;96781.38;;;7.51;86.94
72336;BME280;73817;48.446;8.834;2023-12-22T10:19:34;96781.66;;;7.56;87.17
72336;BME280;73817;48.446;8.834;2023-12-22T10:22:35;96777.78;;;7.52;88.47
72336;BME280;73817;48.446;8.834;2023-12-22T10:25:35;96786.06;;;7.55;87.95
72336;BME280;73817;48.446;8.834;2023-12-22T10:28:35;96781.66;;;7.56;88.39
72336;BME280;73817;48.446;8.834;2023-12-22T10:31:42;96776.63;;;7.54;89.60
72336;BME280;73817;48.446;8.834;2023-12-22T10:34:43;96771.06;;;7.57;91.28
72336;BME280;73817;48.446;8.834;2023-12-22T10:37:45;96766.03;;;7.56;90.57
72336;BME280;73817;48.446;8.834;2023-12-22T10:40:46;96765.41;;;7.54;89.07
72336;BME280;73817;48.446;8.834;2023-12-22T10:43:47;96753.56;;;7.51;88.80
72336;BME280;73817;48.446;8.834;2023-12-22T10:46:48;96754.44;;;7.58;92.35
72336;BME280;73817;48.446;8.834;2023-12-22T10:49:48;96754.00;;;7.55;90.35
72336;BME280;73817;48.446;8.834;2023-12-22T10:52:50;96751.75;;;7.52;89.65
72336;BME280;73817;48.446;8.834;2023-12-22T10:55:51;96737.13;;;7.51;91.01
72336;BME280;73817;48.446;8.834;2023-12-22T10:58:51;96730.56;;;7.55;91.27
72336;BME280;73817;48.446;8.834;2023-12-22T11:01:53;96732.75;;;7.51;91.14
72336;BME280;73817;48.446;8.834;2023-12-22T11:05:01;96736.75;;;7.54;91.70
72336;BME280;73817;48.446;8.834;2023-12-22T11:08:03;96724.38;;;7.56;91.24
72336;BME280;73817;48.446;8.834;2023-12-22T11:11:13;96723.13;;;7.52;91.00
72336;BME280;73817;48.446;8.834;2023-12-22T11:14:16;96717.16;;;7.58;91.00
72336;BME280;73817;48.446;8.834;2023-12-22T11:17:21;96706.38;;;7.61;91.32
72336;BME280;73817;48.446;8.834;2023-12-22T11:20:22;96705.81;;;7.65;90.86
72336;BME280;73817;48.446;8.834;2023-12-22T11:23:25;96711.13;;;7.72;90.54
72336;BME280;73817;48.446;8.834;2023-12-22T11:26:25;96699.69;;;7.73;89.67
72336;BME280;73817;48.446;8.834;2023-12-22T11:29:26;96691.31;;;7.77;90.13
72336;BME280;73817;48.446;8.834;2023-12-22T11:32:28;96685.84;;;7.72;88.75
72336;BME280;73817;48.446;8.834;2023-12-22T11:35:29;96685.28;;;7.77;90.74
72336;BME280;73817;48.446;8.834;2023-12-22T11:38:30;96691.13;;;7.79;91.46
72336;BME280;73817;48.446;8.834;2023-12-22T11:41:34;96678.09;;;7.79;92.44
72336;BME280;73817;48.446;8.834;2023-12-22T11:44:35;96671.47;;;7.76;90.47
72336;BME280;73817;48.446;8.834;2023-12-22T11:47:36;96653.63;;;7.73;91.45
72336;BME280;73817;48.446;8.834;2023-12-22T11:50:37;96644.25;;;7.79;92.24
72336;BME280;73817;48.446;8.834;2023-12-22T11:53:38;96645.06;;;7.79;91.10
72336;BME280;73817;48.446;8.834;2023-12-22T11:56:39;96636.44;;;7.79;90.68
72336;BME280;73817;48.446;8.834;2023-12-22T11:59:39;96630.59;;;7.77;91.63
72336;BME280;73817;48.446;8.834;2023-12-22T12:02:40;96626.66;;;7.81;92.99
72336;BME280;73817;48.446;8.834;2023-12-22T12:05:42;96623.63;;;7.84;93.26
72336;BME280;73817;48.446;8.834;2023-12-22T12:08:43;96631.41;;;7.77;90.35
72336;BME280;73817;48.446;8.834;2023-12-22T12:14:57;96619.81;;;7.80;92.17
72336;BME280;73817;48.446;8.834;2023-12-22T12:17:58;96619.03;;;7.79;93.09
72336;BME280;73817;48.446;8.834;2023-12-22T12:20:59;96604.19;;;7.80;92.67
72336;BME280;73817;48.446;8.834;2023-12-22T12:23:59;96613.19;;;7.77;92.75
72336;BME280;73817;48.446;8.834;2023-12-22T12:27:00;96598.19;;;7.79;94.46
72336;BME280;73817;48.446;8.834;2023-12-22T12:30:06;96602.38;;;7.80;95.26
72336;BME280;73817;48.446;8.834;2023-12-22T12:33:10;96606.78;;;7.80;94.90
72336;BME280;73817;48.446;8.834;2023-12-22T12:36:11;96601.56;;;7.80;93.80
72336;BME280;73817;48.446;8.834;2023-12-22T12:39:14;96586.56;;;7.82;94.83
72336;BME280;73817;48.446;8.834;2023-12-22T12:42:15;96580.97;;;7.85;93.64
72336;BME280;73817;48.446;8.834;2023-12-22T12:45:21;96568.75;;;7.85;93.72
72336;BME280;73817;48.446;8.834;2023-12-22T12:48:22;96567.19;;;7.91;95.88
72336;BME280;73817;48.446;8.834;2023-12-22T12:51:23;96573.81;;;7.93;96.75
72336;BME280;73817;48.446;8.834;2023-12-22T12:54:23;96564.59;;;7.91;95.91
72336;BME280;73817;48.446;8.834;2023-12-22T12:57:24;96565.63;;;7.96;97.44
72336;BME280;73817;48.446;8.834;2023-12-22T13:00:28;96571.03;;;7.95;96.12
72336;BME280;73817;48.446;8.834;2023-12-22T13:03:29;96579.59;;;7.89;95.42
72336;BME280;73817;48.446;8.834;2023-12-22T13:06:29;96571.84;;;7.95;98.04
72336;BME280;73817;48.446;8.834;2023-12-22T13:09:33;96568.22;;;7.96;97.97
72336;BME280;73817;48.446;8.834;2023-12-22T13:12:34;96581.19;;;7.90;96.72
72336;BME280;73817;48.446;8.834;2023-12-22T13:15:40;96573.81;;;7.93;98.42
72336;BME280;73817;48.446;8.834;2023-12-22T13:18:40;96567.59;;;7.94;97.25
72336;BME280;73817;48.446;8.834;2023-12-22T13:21:41;96578.22;;;7.93;97.19
72336;BME280;73817;48.446;8.834;2023-12-22T13:24:41;96574.25;;;7.97;98.11
72336;BME280;73817;48.446;8.834;2023-12-22T13:27:49;96572.22;;;7.92;97.15
72336;BME280;73817;48.446;8.834;2023-12-22T13:30:50;96571.84;;;7.95;99.38
72336;BME280;73817;48.446;8.834;2023-12-22T13:33:50;96587.09;;;7.98;100.00
72336;BME280;73817;48.446;8.834;2023-12-22T13:36:51;96588.06;;;7.97;99.53
72336;BME280;73817;48.446;8.834;2023-12-22T13:39:51;96584.28;;;8.00;97.93
72336;BME280;73817;48.446;8.834;2023-12-22T13:42:56;96586.28;;;8.04;98.85
72336;BME280;73817;48.446;8.834;2023-12-22T13:45:57;96583.91;;;8.03;98.45
72336;BME280;73817;48.446;8.834;2023-12-22T13:48:58;96587.94;;;8.05;98.36
72336;BME280;73817;48.446;8.834;2023-12-22T13:51:59;96577.91;;;8.09;98.39
72336;BME280;73817;48.446;8.834;2023-12-22T13:54:59;96589.97;;;8.10;98.16
72336;BME280;73817;48.446;8.834;2023-12-22T13:58:02;96597.78;;;8.10;98.46
72336;BME280;73817;48.446;8.834;2023-12-22T14:01:03;96594.16;;;8.11;98.77
72336;BME280;73817;48.446;8.834;2023-12-22T14:04:12;96586.97;;;8.13;100.00
72336;BME280;73817;48.446;8.834;2023-12-22T14:07:12;96587.16;;;8.11;100.00
72336;BME280;73817;48.446;8.834;2023-12-22T14:10:13;96588.34;;;8.09;99.43
72336;BME280;73817;48.446;8.834;2023-12-22T14:13:14;96598.34;;;8.05;98.05
72336;BME280;73817;48.446;8.834;2023-12-22T14:16:15;96598.75;;;8.09;100.00
72336;BME280;73817;48.446;8.834;2023-12-22T14:19:15;96606.56;;;8.09;99.03
72336;BME280;73817;48.446;8.834;2023-12-22T14:22:16;96612.59;;;8.09;100.00
72336;BME280;73817;48.446;8.834;2023-12-22T14:25:17;96618.44;;;8.11;99.07
72336;BME280;73817;48.446;8.834;2023-12-22T14:28:17;96605.59;;;8.10;98.36
72336;BME280;73817;48.446;8.834;2023-12-22T14:31:17;96607.63;;;8.14;98.85
72336;BME280;73817;48.446;8.834;2023-12-22T14:34:18;96625.06;;;8.14;98.50
72336;BME280;73817;48.446;8.834;2023-12-22T14:37:18;96613.25;;;8.18;100.00
72336;BME280;73817;48.446;8.834;2023-12-22T14:40:19;96617.13;;;8.22;99.50
72336;BME280;73817;48.446;8.834;2023-12-22T14:43:20;96617.13;;;8.22;98.74
72336;BME280;73817;48.446;8.834;2023-12-22T14:46:20;96619.13;;;8.26;99.76
72336;BME280;73817;48.446;8.834;2023-12-22T14:49:21;96621.16;;;8.31;100.00
72336;BME280;73817;48.446;8.834;2023-12-22T14:52:21;96621.16;;;8.31;99.75
72336;BME280;73817;48.446;8.834;2023-12-22T14:55:21;96621.97;;;8.31;99.13
72336;BME280;73817;48.446;8.834;2023-12-22T14:58:22;96624.84;;;8.36;98.41
72336;BME280;73817;48.446;8.834;2023-12-22T15:01:23;96628.66;;;8.40;98.46
72336;BME280;73817;48.446;8.834;2023-12-22T15:04:23;96626.66;;;8.42;98.53
72336;BME280;73817;48.446;8.834;2023-12-22T15:07:24;96631.50;;;8.45;99.52
72336;BME280;73817;48.446;8.834;2023-12-22T15:10:24;96629.69;;;8.46;99.49
72336;BME280;73817;48.446;8.834;2023-12-22T15:13:24;96637.31;;;8.47;99.16
72336;BME280;73817;48.446;8.834;2023-12-22T15:16:25;96648.16;;;8.51;99.23
72336;BME280;73817;48.446;8.834;2023-12-22T15:19:25;96644.75;;;8.50;99.24
72336;BME280;73817;48.446;8.834;2023-12-22T15:22:26;96651.56;;;8.51;98.02
72336;BME280;73817;48.446;8.834;2023-12-22T15:25:27;96661.00;;;8.52;98.17
72336;BME280;73817;48.446;8.834;2023-12-22T15:28:27;96667.84;;;8.53;100.00
72336;BME280;73817;48.446;8.834;2023-12-22T15:31:28;96665.22;;;8.53;99.63
72336;BME280;73817;48.446;8.834;2023-12-22T15:34:31;96662.41;;;8.55;99.67
72336;BME280;73817;48.446;8.834;2023-12-22T15:37:31;96669.25;;;8.56;99.96
72336;BME280;73817;48.446;8.834;2023-12-22T15:40:32;96676.09;;;8.57;100.00
72336;BME280;73817;48.446;8.834;2023-12-22T15:43:32;96677.06;;;8.56;100.00
72336;BME280;73817;48.446;8.834;2023-12-22T15:46:32;96682.28;;;8.56;100.00
72336;BME280;73817;48.446;8.834;2023-12-22T15:49:33;96681.69;;;8.54;100.00
72336;BME280;73817;48.446;8.834;2023-12-22T15:52:33;96687.88;;;8.53;100.00
72336;BME280;73817;48.446;8.834;2023-12-22T15:55:33;96695.69;;;8.53;100.00
72336;BME280;73817;48.446;8.834;2023-12-22T15:58:35;96699.13;;;8.53;100.00
72336;BME280;73817;48.446;8.834;2023-12-22T16:01:42;96697.53;;;8.52;100.00
72336;BME280;73817;48.446;8.834;2023-12-22T16:04:43;96702.13;;;8.50;100.00
72336;BME280;73817;48.446;8.834;2023-12-22T16:07:45;96696.09;;;8.50;100.00
72336;BME280;73817;48.446;8.834;2023-12-22T16:10:46;96690.88;;;8.50;100.00
72336;BME280;73817;48.446;8.834;2023-12-22T16:13:47;96704.72;;;8.50;99.55